Murdock, Florida
Current Conditions -  °F | °C
As of 8:53 PM on Monday 22 Dec 2014 (Local Time) from KPGD Reporting Station
Clear Clear  
Wind Chill: 68°   Ceiling: Unl
Heat Index: 68°   Visibility: 9mi
Dew Point: 67°   Wind: 6mph
Humidity: 96%   Direction: 180°S
Pressure: 29.97"   Gusts: NA
Location:  27.01°N, 82.15°W
Report Text: KPGD 230153Z AUTO 18005KT 9SM CLR 20/19 A2997 RMK AO2 SLP150 T02000194
Loading
Personal Weather Stations






























Interactive Weather Map New forecast layout! Learn more

10-Day Weather Forecast

Advertisements
Track Severe Weather on mobile